Aviation Digital Data Service (ADDS)

Output produced by METARs form (1357 UTC 25 September 2016)
found at http://aviationweather.gov/adds/metars/
 
KDUJ 251120Z 2512/2612 06005KT P6SM SKC